.
WxDataArchive / Data Records for 2007-12-23
2007-12-22 December 2007 2007-12-24

Data Records for Sunday, 23 December 2007

Time	Temp	Chill	HIndex	Humid	Dewpt	 Wind 	HiWind	WindDir	Rain 	Barom 
-----	----	-----	------	-----	-----	------	------	-------	-----	----- 
00:00	45.4	45.4	45.4	90	42.6	0	2	112	0.01	29.679 
00:05	45.4	45.4	45.4	91	42.9	1	2	90	0.00	29.672 
00:10	45.2	45.2	45.2	91	42.7	1	2	90	0.01	29.674 
00:15	45.2	45.2	45.2	92	43.0	1	4	90	0.02	29.667 
00:20	45.2	45.2	45.2	92	43.0	1	3	135	0.01	29.660 
00:25	45.1	45.1	45.1	92	42.9	1	3	112	0.01	29.650 
00:30	45.1	45.1	45.1	92	42.9	1	3	158	0.01	29.644 
00:35	45.1	45.1	45.1	92	42.9	2	4	112	0.01	29.642 
00:40	45.1	45.1	45.1	93	43.2	3	5	112	0.01	29.628 
00:45	45.1	45.1	45.1	93	43.2	3	5	112	0.01	29.614 
00:50	45.1	45.1	45.1	93	43.2	3	6	112	0.01	29.603 
00:55	45.5	45.5	45.5	93	43.6	3	6	112	0.00	29.590 
01:00	45.8	45.8	45.8	93	43.9	3	7	112	0.00	29.591 
01:05	46.0	46.0	46.0	93	44.1	3	9	112	0.00	29.595 
01:10	46.0	44.2	46.0	92	43.8	4	7	112	0.00	29.585 
01:15	46.1	44.4	46.1	92	43.9	4	11	112	0.00	29.582 
01:20	46.2	44.5	46.2	91	43.7	4	10	112	0.00	29.581 
01:25	46.4	46.4	46.4	91	43.9	3	5	112	0.00	29.582 
01:30	46.5	46.5	46.5	90	43.7	3	7	112	0.00	29.577 
01:35	46.4	46.4	46.4	90	43.6	3	5	112	0.01	29.561 
01:40	46.2	46.2	46.2	90	43.4	2	5	135	0.00	29.554 
01:45	46.4	46.4	46.4	91	43.9	2	3	112	0.00	29.550 
01:50	46.2	46.2	46.2	91	43.7	2	4	112	0.01	29.551 
01:55	46.5	46.5	46.5	91	44.0	3	10	90	0.00	29.549 
02:00	46.8	46.8	46.8	91	44.3	3	7	112	0.01	29.546 
02:05	47.0	47.0	47.0	91	44.5	3	13	90	0.00	29.536 
02:10	47.3	47.3	47.3	91	44.8	3	8	90	0.01	29.531 
02:15	47.4	47.4	47.4	92	45.2	3	11	90	0.00	29.528 
02:20	47.7	46.2	47.7	92	45.5	4	9	90	0.02	29.524 
02:25	47.9	46.4	47.9	93	46.0	4	10	90	0.00	29.524 
02:30	48.0	46.6	48.0	93	46.1	4	10	90	0.01	29.525 
02:35	48.3	46.9	48.3	93	46.4	4	12	90	0.01	29.529 
02:40	48.5	46.5	48.5	93	46.6	5	10	90	0.02	29.519 
02:45	48.6	47.3	48.6	93	46.7	4	10	90	0.01	29.514 
02:50	48.8	47.5	48.8	94	47.1	4	9	90	0.01	29.514 
02:55	48.9	46.9	48.9	94	47.2	5	13	90	0.01	29.514 
03:00	48.9	47.6	48.9	94	47.2	4	11	90	0.01	29.513 
03:05	48.9	47.6	48.9	94	47.2	4	10	90	0.01	29.512 
03:10	48.9	47.6	48.9	94	47.2	4	11	90	0.02	29.504 
03:15	48.8	47.5	48.8	94	47.1	4	16	90	0.01	29.500 
03:20	48.8	47.5	48.8	94	47.1	4	12	90	0.00	29.499 
03:25	48.9	47.6	48.9	95	47.5	4	10	90	0.01	29.489 
03:30	48.9	47.6	48.9	94	47.2	4	14	112	0.00	29.486 
03:35	49.1	47.8	49.1	95	47.7	4	7	90	0.01	29.481 
03:40	49.2	47.9	49.2	95	47.8	4	14	112	0.00	29.472 
03:45	49.4	48.2	49.4	95	48.0	4	10	90	0.00	29.471 
03:50	49.5	48.3	49.5	95	48.1	4	7	90	0.00	29.467 
03:55	49.5	49.5	49.5	95	48.1	3	9	112	0.00	29.466 
04:00	49.6	48.4	49.6	95	48.2	4	11	90	0.01	29.460 
04:05	49.6	49.6	49.6	95	48.2	3	7	90	0.01	29.455 
04:10	49.9	48.8	49.9	95	48.5	4	10	90	0.00	29.445 
04:15	50.2	50.2	50.2	96	49.1	4	11	90	0.00	29.444 
04:20	50.5	50.5	50.5	95	49.1	4	10	90	0.01	29.433 
04:25	50.7	50.7	50.7	95	49.3	5	14	90	0.00	29.428 
04:30	50.8	50.8	50.8	95	49.4	5	15	90	0.01	29.422 
04:35	50.8	50.8	50.8	95	49.4	5	13	90	0.00	29.417 
04:40	51.0	51.0	51.0	95	49.6	5	14	90	0.00	29.416 
04:45	51.0	51.0	51.0	94	49.3	5	13	90	0.01	29.410 
04:50	51.1	51.1	51.1	94	49.4	6	13	90	0.00	29.404 
04:55	51.1	51.1	51.1	94	49.4	4	10	90	0.01	29.404 
05:00	51.1	51.1	51.1	94	49.4	6	11	90	0.01	29.401 
05:05	51.3	51.3	51.3	94	49.6	4	11	90	0.01	29.395 
05:10	51.3	51.3	51.3	94	49.6	5	11	90	0.01	29.396 
05:15	51.4	51.4	51.4	94	49.7	6	12	90	0.01	29.388 
05:20	51.6	51.6	51.6	94	49.9	5	11	90	0.00	29.391 
05:25	51.4	51.4	51.4	94	49.7	3	12	90	0.00	29.387 
05:30	51.6	51.6	51.6	93	49.6	4	12	90	0.00	29.390 
05:35	51.7	51.7	51.7	93	49.7	3	7	270	0.01	29.398 
05:40	50.7	50.7	50.7	91	48.2	10	32	248	0.04	29.425 
05:45	48.6	44.3	48.6	88	45.2	10	26	270	0.03	29.436 
05:50	47.7	44.0	47.7	89	44.6	8	17	270	0.00	29.437 
05:55	47.3	43.1	47.3	88	43.9	9	23	270	0.01	29.445 
06:00	46.7	41.9	46.7	85	42.4	10	20	270	0.00	29.455 
06:05	46.2	41.7	46.2	84	41.6	9	17	270	0.00	29.457 
06:10	46.0	42.4	46.0	84	41.4	7	14	248	0.00	29.460 
06:15	45.7	41.1	45.7	83	40.8	9	20	270	0.00	29.467 
06:20	45.2	40.1	45.2	81	39.7	10	17	270	0.00	29.477 
06:25	44.6	40.2	44.6	80	38.8	8	14	270	0.00	29.487 
06:30	44.2	39.3	44.2	80	38.4	9	27	270	0.00	29.494 
06:35	43.5	38.4	43.5	78	37.1	9	18	270	0.00	29.495 
06:40	42.8	36.4	42.8	76	35.8	12	27	270	0.00	29.505 
06:45	42.1	37.7	42.1	77	35.4	7	15	270	0.00	29.504 
06:50	41.5	36.4	41.5	76	34.5	8	21	248	0.00	29.505 
06:55	40.8	35.1	40.8	76	33.8	9	17	270	0.00	29.507 
07:00	40.2	35.4	40.2	77	33.6	7	15	270	0.00	29.521 
07:05	39.5	33.0	39.5	76	32.6	10	22	270	0.00	29.520 
07:10	38.6	32.4	38.6	76	31.7	9	24	270	0.00	29.524 
07:15	37.8	31.9	37.8	77	31.2	8	16	270	0.00	29.532 
07:20	37.2	31.8	37.2	78	31.0	7	17	248	0.00	29.536 
07:25	36.9	32.1	36.9	80	31.3	6	13	270	0.00	29.539 
07:30	36.5	30.9	36.5	77	30.0	7	19	248	0.00	29.542 
07:35	36.0	30.3	36.0	78	29.8	7	16	270	0.00	29.546 
07:40	35.6	29.2	35.6	78	29.4	8	18	270	0.00	29.551 
07:45	35.3	28.3	35.3	78	29.1	9	18	248	0.00	29.547 
07:50	34.9	28.4	34.9	79	29.1	8	21	270	0.00	29.553 
07:55	34.7	29.4	34.7	80	29.2	6	15	270	0.00	29.554 
08:00	34.6	31.1	34.6	81	29.4	4	14	270	0.00	29.560 
08:05	34.1	28.0	34.1	80	28.6	7	17	270	0.00	29.563 
08:10	33.4	25.0	33.4	75	26.3	11	25	270	0.00	29.565 
08:15	32.5	24.9	32.5	74	25.2	9	21	270	0.00	29.575 
08:20	31.9	24.7	31.9	75	24.9	8	17	270	0.00	29.579 
08:25	31.5	25.6	31.5	77	25.1	6	16	270	0.00	29.589 
08:30	31.3	24.7	31.3	78	25.3	7	21	270	0.00	29.594 
08:35	31.2	23.9	31.2	78	25.2	8	17	270	0.00	29.598 
08:40	31.0	23.6	31.0	77	24.7	8	22	270	0.00	29.598 
08:45	30.7	23.9	30.7	77	24.4	7	16	270	0.00	29.603 
08:50	30.4	23.6	30.4	77	24.1	7	19	270	0.00	29.610 
08:55	30.3	22.8	30.3	77	24.0	8	17	270	0.00	29.615 
09:00	30.0	21.8	30.0	76	23.4	9	23	270	0.00	29.622 
09:05	29.7	22.0	29.7	77	23.4	8	18	270	0.00	29.628 
09:10	29.5	21.8	29.5	77	23.2	8	27	270	0.00	29.631 
09:15	29.4	21.1	29.4	77	23.1	9	21	270	0.00	29.640 
09:20	28.5	18.9	28.5	73	21.0	11	26	270	0.00	29.645 
09:25	27.8	18.5	27.8	73	20.3	10	20	270	0.00	29.657 
09:30	27.5	19.4	27.5	74	20.3	8	20	270	0.00	29.660 
09:35	27.5	19.4	27.5	74	20.3	8	20	270	0.00	29.663 
09:40	27.6	21.0	27.6	75	20.7	6	16	270	0.00	29.664 
09:45	27.6	21.0	27.6	76	21.0	6	13	270	0.00	29.676 
09:50	27.5	18.7	27.5	73	20.0	9	19	270	0.00	29.677 
09:55	27.3	19.1	27.3	74	20.1	8	16	270	0.00	29.678 
10:00	27.5	19.4	27.5	75	20.6	8	20	270	0.00	29.688 
10:05	27.5	20.1	27.5	75	20.6	7	15	270	0.00	29.685 
10:10	27.2	19.0	27.2	75	20.3	8	19	248	0.00	29.689 
10:15	27.0	19.5	27.0	75	20.2	7	13	270	0.00	29.691 
10:20	26.7	19.9	26.7	75	19.9	6	14	270	0.00	29.693 
10:25	26.7	19.1	26.7	73	19.2	7	17	248	0.00	29.692 
10:30	26.6	19.8	26.6	73	19.1	6	19	270	0.00	29.693 
10:35	26.6	19.0	26.6	74	19.5	7	19	270	0.00	29.693 
10:40	26.6	21.8	26.6	75	19.8	4	11	270	0.00	29.694 
10:45	26.6	19.0	26.6	74	19.5	7	20	270	0.00	29.701 
10:50	26.4	18.0	26.4	72	18.6	8	19	270	0.00	29.706 
10:55	26.3	17.3	26.3	69	17.5	9	21	270	0.00	29.706 
11:00	26.1	18.4	26.1	70	17.7	7	16	270	0.00	29.706 
11:05	26.1	19.2	26.1	71	18.0	6	19	270	0.00	29.709 
11:10	26.0	19.1	26.0	72	18.2	6	15	248	0.00	29.710 
11:15	26.0	18.3	26.0	72	18.2	7	17	248	0.00	29.708 
11:20	25.7	17.2	25.7	72	17.9	8	22	270	0.00	29.709 
11:25	25.4	17.5	25.4	71	17.3	7	18	270	0.00	29.709 
11:30	25.3	18.3	25.3	70	16.9	6	12	270	0.00	29.710 
11:35	25.3	17.4	25.3	69	16.6	7	17	270	0.00	29.710 
11:40	25.3	16.7	25.3	68	16.2	8	20	270	0.00	29.710 
11:45	25.1	16.4	25.1	69	16.4	8	16	270	0.00	29.709 
11:50	25.1	18.0	25.1	70	16.7	6	22	248	0.00	29.710 
11:55	24.8	15.4	24.8	68	15.8	9	21	248	0.00	29.709 
12:00	24.8	16.1	24.8	66	15.1	8	22	270	0.00	29.709 
12:05	24.8	15.4	24.8	65	14.7	9	20	248	0.00	29.709 
12:10	24.8	16.1	24.8	65	14.7	8	19	270	0.00	29.709 
12:15	25.0	18.9	25.0	66	15.3	5	16	270	0.00	29.706 
12:20	25.1	16.4	25.1	64	14.7	8	24	270	0.00	29.708 
12:25	25.1	16.4	25.1	65	15.0	8	17	270	0.00	29.707 
12:30	25.3	17.4	25.3	66	15.6	7	16	248	0.00	29.708 
12:35	25.3	17.4	25.3	66	15.6	7	17	270	0.00	29.704 
12:40	25.3	16.7	25.3	64	14.9	8	21	270	0.00	29.699 
12:45	25.4	16.1	25.4	65	15.3	9	21	270	0.00	29.697 
12:50	25.6	19.6	25.6	67	16.2	5	15	270	0.00	29.700 
12:55	25.4	18.4	25.4	67	16.0	6	21	270	0.00	29.697 
13:00	25.1	18.0	25.1	67	15.7	6	14	270	0.00	29.697 
13:05	25.0	17.9	25.0	68	16.0	6	15	248	0.00	29.693 
13:10	24.8	18.6	24.8	71	16.8	5	12	270	0.00	29.695 
13:15	24.7	16.7	24.7	73	17.3	7	17	270	0.00	29.695 
13:20	24.5	16.5	24.5	72	16.8	7	16	270	0.00	29.696 
13:25	24.4	17.2	24.4	73	17.0	6	21	270	0.00	29.698 
13:30	24.1	16.0	24.1	72	16.4	7	18	270	0.00	29.706 
13:35	23.8	14.9	23.8	69	15.1	8	20	270	0.00	29.708 
13:40	23.8	14.2	23.8	66	14.1	9	23	270	0.00	29.711 
13:45	23.6	16.2	23.6	69	14.9	6	13	270	0.00	29.712 
13:50	23.5	14.5	23.5	68	14.5	8	18	270	0.00	29.712 
13:55	23.3	16.9	23.3	72	15.6	5	20	270	0.00	29.712 
14:00	23.3	16.9	23.3	70	15.0	5	16	270	0.00	29.710 
14:05	23.3	15.9	23.3	69	14.7	6	17	270	0.00	29.719 
14:10	22.9	13.1	22.9	67	13.6	9	22	270	0.00	29.713 
14:15	23.0	13.2	23.0	63	12.3	9	22	270	0.00	29.714 
14:20	23.6	16.2	23.6	61	12.2	6	14	270	0.00	29.714 
14:25	23.6	14.6	23.6	57	10.6	8	21	270	0.00	29.711 
14:30	23.5	14.5	23.5	59	11.3	8	16	270	0.00	29.711 
14:35	23.3	15.0	23.3	60	11.5	7	14	270	0.00	29.715 
14:40	23.8	15.6	23.8	57	10.8	7	19	248	0.00	29.711 
14:45	23.9	15.0	23.9	55	10.1	8	21	270	0.00	29.710 
14:50	23.9	15.7	23.9	56	10.5	7	17	248	0.00	29.718 
14:55	23.9	17.6	23.9	57	10.9	5	14	248	0.00	29.715 
15:00	24.2	16.1	24.2	55	10.4	7	17	270	0.00	29.717 
15:05	23.9	14.3	23.9	57	10.9	9	18	270	0.00	29.722 
15:10	24.1	16.8	24.1	58	11.5	6	17	270	0.00	29.722 
15:15	24.2	19.1	24.2	58	11.6	4	11	270	0.00	29.721 
15:20	24.4	14.9	24.4	54	10.2	9	20	270	0.00	29.723 
15:25	24.4	15.6	24.4	54	10.2	8	22	270	0.00	29.726 
15:30	24.1	15.2	24.1	56	10.7	8	19	270	0.00	29.733 
15:35	24.1	17.8	24.1	57	11.1	5	13	270	0.00	29.734 
15:40	24.1	16.8	24.1	54	9.9	6	17	270	0.00	29.735 
15:45	24.1	16.8	24.1	54	9.9	6	12	270	0.00	29.737 
15:50	23.9	15.0	23.9	58	11.3	8	17	270	0.00	29.737 
15:55	23.8	14.9	23.8	58	11.2	8	25	248	0.00	29.742 
16:00	23.8	13.0	23.8	56	10.4	11	27	270	0.00	29.738 
16:05	23.8	14.9	23.8	55	10.0	8	20	270	0.00	29.744 
16:10	23.8	14.2	23.8	57	10.8	9	22	270	0.00	29.738 
16:15	23.8	14.2	23.8	57	10.8	9	21	270	0.00	29.746 
16:20	23.6	15.4	23.6	58	11.0	7	18	270	0.00	29.748 
16:25	23.6	14.6	23.6	57	10.6	8	18	270	0.00	29.747 
16:30	23.8	14.2	23.8	58	11.2	9	19	270	0.00	29.755 
16:35	23.5	16.1	23.5	62	12.4	6	11	248	0.00	29.749 
16:40	23.5	16.1	23.5	61	12.1	6	18	248	0.00	29.761 
16:45	23.5	14.5	23.5	60	11.7	8	21	270	0.00	29.759 
16:50	23.5	15.3	23.5	59	11.3	7	16	270	0.00	29.764 
16:55	23.5	13.8	23.5	61	12.1	9	20	270	0.00	29.761 
17:00	23.3	14.3	23.3	62	12.2	8	23	270	0.00	29.759 
17:05	23.3	15.0	23.3	64	13.0	7	17	270	0.00	29.768 
17:10	23.2	16.7	23.2	65	13.2	5	14	270	0.00	29.771 
17:15	23.2	15.8	23.2	63	12.5	6	15	270	0.00	29.770 
17:20	23.2	15.8	23.2	64	12.9	6	15	270	0.00	29.774 
17:25	23.2	14.9	23.2	64	12.9	7	15	270	0.00	29.774 
17:30	23.2	16.7	23.2	65	13.2	5	13	270	0.00	29.778 
17:35	23.2	15.8	23.2	66	13.6	6	15	270	0.00	29.777 
17:40	23.2	15.8	23.2	67	13.9	6	14	270	0.00	29.783 
17:45	23.0	15.5	23.0	70	14.7	6	15	270	0.00	29.787 
17:50	23.0	14.7	23.0	70	14.7	7	24	270	0.00	29.789 
17:55	23.0	14.7	23.0	69	14.4	7	20	270	0.00	29.793 
18:00	23.2	13.4	23.2	66	13.6	9	23	248	0.00	29.790 
18:05	23.3	15.0	23.3	65	13.3	7	19	248	0.00	29.795 
18:10	23.5	16.1	23.5	65	13.5	6	17	270	0.00	29.800 
18:15	23.5	16.1	23.5	64	13.1	6	16	248	0.00	29.798 
18:20	23.5	15.3	23.5	64	13.1	7	19	248	0.00	29.795 
18:25	23.6	15.4	23.6	65	13.6	7	15	270	0.00	29.798 
18:30	23.6	17.2	23.6	67	14.3	5	13	270	0.00	29.799 
18:35	23.5	14.5	23.5	69	14.9	8	16	248	0.00	29.801 
18:40	23.5	16.1	23.5	71	15.5	6	13	248	0.00	29.804 
18:45	23.0	15.5	23.0	77	16.9	6	13	248	0.00	29.810 
18:50	22.5	14.0	22.5	79	17.0	7	16	270	0.00	29.811 
18:55	22.7	14.3	22.7	78	16.9	7	20	270	0.00	29.810 
19:00	22.7	15.2	22.7	79	17.2	6	17	270	0.00	29.813 
19:05	22.7	15.2	22.7	79	17.2	6	16	270	0.00	29.816 
19:10	23.0	13.2	23.0	72	15.3	9	24	248	0.00	29.815 
19:15	23.2	14.9	23.2	69	14.6	7	17	270	0.00	29.816 
19:20	23.3	14.3	23.3	66	13.6	8	20	270	0.00	29.816 
19:25	23.2	12.2	23.2	63	12.5	11	24	270	0.00	29.822 
19:30	23.2	14.9	23.2	63	12.5	7	18	270	0.00	29.821 
19:35	23.2	14.9	23.2	63	12.5	7	20	270	0.00	29.821 
19:40	23.2	14.9	23.2	63	12.5	7	19	270	0.00	29.821 
19:45	23.2	15.8	23.2	63	12.5	6	21	270	0.00	29.819 
19:50	23.2	15.8	23.2	64	12.9	6	17	270	0.00	29.821 
19:55	23.3	13.6	23.3	64	13.0	9	20	270	0.00	29.824 
20:00	23.3	14.3	23.3	64	13.0	8	20	270	0.00	29.818 
20:05	23.5	16.1	23.5	64	13.1	6	17	270	0.00	29.823 
20:10	23.6	17.2	23.6	64	13.2	5	11	270	0.00	29.819 
20:15	23.8	16.5	23.8	63	13.1	6	14	270	0.00	29.821 
20:20	23.9	15.0	23.9	61	12.4	8	21	270	0.00	29.818 
20:25	23.9	14.3	23.9	60	12.1	9	20	270	0.00	29.820 
20:30	24.1	16.0	24.1	59	11.9	7	19	270	0.00	29.819 
20:35	24.1	14.6	24.1	60	12.3	9	19	270	0.00	29.817 
20:40	24.1	16.0	24.1	60	12.3	7	21	270	0.00	29.820 
20:45	24.2	16.9	24.2	61	12.7	6	13	270	0.00	29.822 
20:50	24.1	16.8	24.1	60	12.3	6	18	270	0.00	29.818 
20:55	24.2	12.5	24.2	59	12.0	13	29	270	0.00	29.818 
21:00	24.1	15.2	24.1	59	11.9	8	20	270	0.00	29.816 
21:05	24.2	15.3	24.2	60	12.3	8	16	270	0.00	29.819 
21:10	24.2	14.7	24.2	59	12.0	9	20	270	0.00	29.815 
21:15	24.2	14.7	24.2	59	12.0	9	26	270	0.00	29.813 
21:20	24.2	16.9	24.2	60	12.3	6	19	270	0.00	29.809 
21:25	24.2	14.7	24.2	60	12.3	9	20	270	0.00	29.806 
21:30	24.2	15.3	24.2	59	12.0	8	22	270	0.00	29.806 
21:35	24.4	14.9	24.4	59	12.2	9	23	270	0.00	29.805 
21:40	24.4	16.3	24.4	59	12.2	7	25	270	0.00	29.805 
21:45	24.4	15.6	24.4	59	12.2	8	23	248	0.00	29.804 
21:50	24.4	14.9	24.4	59	12.2	9	20	270	0.00	29.803 
21:55	24.4	14.3	24.4	59	12.2	10	22	270	0.00	29.800 
22:00	24.4	16.3	24.4	60	12.5	7	16	248	0.00	29.801 
22:05	24.5	16.5	24.5	60	12.6	7	16	270	0.00	29.804 
22:10	24.5	15.7	24.5	60	12.6	8	17	248	0.00	29.800 
22:15	24.7	14.7	24.7	59	12.4	10	20	270	0.00	29.801 
22:20	24.7	14.7	24.7	60	12.8	10	26	270	0.00	29.799 
22:25	24.7	16.7	24.7	60	12.8	7	19	270	0.00	29.800 
22:30	24.7	17.5	24.7	61	13.2	6	22	270	0.00	29.800 
22:35	24.8	16.1	24.8	60	12.9	8	17	270	0.00	29.804 
22:40	24.8	16.1	24.8	60	12.9	8	19	248	0.00	29.797 
22:45	24.8	16.8	24.8	61	13.3	7	18	270	0.00	29.801 
22:50	25.0	17.1	25.0	61	13.5	7	19	270	0.00	29.804 
22:55	25.0	15.7	25.0	61	13.5	9	21	270	0.00	29.803 
23:00	25.0	16.3	25.0	61	13.5	8	20	270	0.00	29.799 
23:05	25.1	15.8	25.1	60	13.2	9	20	270	0.00	29.804 
23:10	25.1	15.8	25.1	60	13.2	9	22	270	0.00	29.806 
23:15	25.1	16.4	25.1	60	13.2	8	20	270	0.00	29.806 
23:20	25.1	16.4	25.1	61	13.6	8	23	270	0.00	29.809 
23:25	25.1	17.2	25.1	62	13.9	7	18	270	0.00	29.807 
23:30	25.0	16.3	25.0	62	13.8	8	19	270	0.00	29.812 
23:35	25.0	17.9	25.0	62	13.8	6	19	270	0.00	29.814 
23:40	24.8	16.8	24.8	62	13.7	7	19	270	0.00	29.814 
23:45	24.7	15.3	24.7	62	13.6	9	22	270	0.00	29.812 
23:50	24.7	16.7	24.7	63	13.9	7	17	270	0.00	29.816 
23:55	24.7	16.7	24.7	63	13.9	7	19	270	0.00	29.820 

CoCoRaHS
IN-AL-39
A2 Web Hosting
Creative Commons License
GoDaddy
Look for:

loaded 2017-12-13 02:51:18 • last modified 2010-11-18 10:43:29
Privacy PolicyDisclaimer
• wx.awcolley.com is powered by PmWiki v.2002016 •
• all content (unless otherwise noted) © 2017 A W Colley